地図

経路データ

SID SEASON NUMBER BASIN SUBBASIN NAME ISO_TIME NATURE LAT LON WMO_WIND WMO_PRES WMO_AGENCY TRACK_TYPE DIST2LAND LANDFALL IFLAG USA_AGENCY USA_ATCF_ID USA_LAT USA_LON USA_RECORD USA_STATUS USA_WIND USA_PRES USA_SSHS USA_R34_NE USA_R34_SE USA_R34_SW USA_R34_NW USA_R50_NE USA_R50_SE USA_R50_SW USA_R50_NW USA_R64_NE USA_R64_SE USA_R64_SW USA_R64_NW USA_POCI USA_ROCI USA_RMW USA_EYE TOKYO_LAT TOKYO_LON TOKYO_GRADE TOKYO_WIND TOKYO_PRES TOKYO_R50_DIR TOKYO_R50_LONG TOKYO_R50_SHORT TOKYO_R30_DIR TOKYO_R30_LONG TOKYO_R30_SHORT TOKYO_LAND CMA_LAT CMA_LON CMA_CAT CMA_WIND CMA_PRES HKO_LAT HKO_LON HKO_CAT HKO_WIND HKO_PRES NEWDELHI_LAT NEWDELHI_LON NEWDELHI_GRADE NEWDELHI_WIND NEWDELHI_PRES NEWDELHI_CI NEWDELHI_DP NEWDELHI_POCI REUNION_LAT REUNION_LON REUNION_TYPE REUNION_WIND REUNION_PRES REUNION_TNUM REUNION_CI REUNION_RMW REUNION_R34_NE REUNION_R34_SE REUNION_R34_SW REUNION_R34_NW REUNION_R50_NE REUNION_R50_SE REUNION_R50_SW REUNION_R50_NW REUNION_R64_NE REUNION_R64_SE REUNION_R64_SW REUNION_R64_NW BOM_LAT BOM_LON BOM_TYPE BOM_WIND BOM_PRES BOM_TNUM BOM_CI BOM_RMW BOM_R34_NE BOM_R34_SE BOM_R34_SW BOM_R34_NW BOM_R50_NE BOM_R50_SE BOM_R50_SW BOM_R50_NW BOM_R64_NE BOM_R64_SE BOM_R64_SW BOM_R64_NW BOM_ROCI BOM_POCI BOM_EYE BOM_POS_METHOD BOM_PRES_METHOD NADI_LAT NADI_LON NADI_CAT NADI_WIND NADI_PRES WELLINGTON_LAT WELLINGTON_LON WELLINGTON_WIND WELLINGTON_PRES DS824_LAT DS824_LON DS824_STAGE DS824_WIND DS824_PRES TD9636_LAT TD9636_LON TD9636_STAGE TD9636_WIND TD9636_PRES TD9635_LAT TD9635_LON TD9635_WIND TD9635_PRES TD9635_ROCI NEUMANN_LAT NEUMANN_LON NEUMANN_CLASS NEUMANN_WIND NEUMANN_PRES MLC_LAT MLC_LON MLC_CLASS MLC_WIND MLC_PRES USA_GUST BOM_GUST BOM_GUST_PER REUNION_GUST REUNION_GUST_PER USA_SEAHGT USA_SEARAD_NE USA_SEARAD_SE USA_SEARAD_SW USA_SEARAD_NW STORM_SPEED STORM_DIR
2021335S09102 2022 94 SI WA TERATAI 2021-12-01 06:00:00 NR -9.20000 102.300 PROVISIONAL 417 417 O_____________ tcvightals SI022021 -9.20000 102.300 35 1004 0 11 11 45 30 1008 70 45 10 197
2021335S09102 2022 94 SI WA TERATAI 2021-12-01 09:00:00 NR -9.65928 102.160 PROVISIONAL 463 463 P_____________ SI022021 -9.65928 102.160 35 1004 0 9 199
2021335S09102 2022 94 SI WA TERATAI 2021-12-01 12:00:00 NR -10.0369 102.003 PROVISIONAL 502 502 I_____________ tcvightals SI022021 -10.0369 102.003 35 1004 0 7 209
2021335S09102 2022 94 SI WA TERATAI 2021-12-01 15:00:00 NR -10.2612 101.817 PROVISIONAL 541 541 P_____________ SI022021 -10.2612 101.817 35 1004 0 5 236
2021335S09102 2022 94 SI WA TERATAI 2021-12-01 18:00:00 NR -10.3000 101.600 PROVISIONAL 557 557 O_____________ tcvightals SI022021 -10.3000 101.600 35 1004 0 30 55 40 45 1008 90 25 5 289
2021335S09102 2022 94 SI WA TERATAI 2021-12-01 21:00:00 NR -10.1048 101.342 PROVISIONAL 566 559 P_____________ SI022021 -10.1048 101.342 32 1004 -1 1009 90 25 6 309
2021335S09102 2022 94 SI WA TERATAI 2021-12-02 00:00:00 NR -9.90000 101.100 PROVISIONAL 569 569 O_____________ tcvitals SI022021 -9.90000 101.100 29 1005 -1 1010 90 25 5 291
2021335S09102 2022 94 SI WA TERATAI 2021-12-02 03:00:00 NR -9.93144 100.890 PROVISIONAL 587 587 P_____________ SI022021 -10.0150 100.943 27 1005 -1 1010 90 25 4 270
2021335S09102 2022 94 SI WA TERATAI 2021-12-02 06:00:00 NR -9.89839 100.661 PROVISIONAL 605 605 O_____________ tcvightals SI022021 -10.1000 100.800 25 1005 -1 1010 90 25 6 298
2021335S09102 2022 94 SI WA TERATAI 2021-12-02 09:00:00 NR -9.67081 100.398 PROVISIONAL 620 614 P_____________ SI022021 -9.84499 100.615 25 1005 -1 1010 90 30 7 313
2021335S09102 2022 94 SI WA TERATAI 2021-12-02 12:00:00 NR -9.43335 100.152 PROVISIONAL 618 618 O_____________ tcvightals SI022021 -9.50000 100.400 25 1005 -1 1010 90 35 6 311
2021335S09102 2022 94 SI WA TERATAI 2021-12-02 15:00:00 NR -9.25543 99.9152 PROVISIONAL 628 617 P_____________ SI022021 -9.26994 100.180 25 1005 -1 1009 85 35 6 306
2021335S09102 2022 94 SI WA TERATAI 2021-12-02 18:00:00 NR -9.10876 99.6978 PROVISIONAL 624 622 O_____________ tcvightals SI022021 -9.10000 99.9000 25 1006 -1 1009 80 35 6 300
2021335S09102 2022 94 SI WA TERATAI 2021-12-02 21:00:00 NR -8.97718 99.4192 PROVISIONAL 635 633 P_____________ SI022021 -8.96257 99.5075 25 1006 -1 1009 80 40 6 289
2021335S09102 2022 94 SI WA TERATAI 2021-12-03 00:00:00 NR -8.90000 99.1000 PROVISIONAL 647 647 O_____________ tcvitals SI022021 -8.90000 99.1000 25 1007 -1 1010 80 45 6 272
2021335S09102 2022 94 SI WA TERATAI 2021-12-03 03:00:00 NR -8.94997 98.7701 PROVISIONAL 669 669 P_____________ SI022021 -8.94997 98.7701 25 1006 -1 1010 80 45 6 260
2021335S09102 2022 94 SI WA TERATAI 2021-12-03 06:00:00 NR -9.00000 98.5000 PROVISIONAL 700 700 O_____________ tcvightals SI022021 -9.00000 98.5000 25 1006 -1 1010 80 45 5 273
2021335S09102 2022 94 SI WA TERATAI 2021-12-03 09:00:00 NR -8.92436 98.2661 PROVISIONAL 704 704 P_____________ SI022021 -8.92436 98.2661 25 1006 -1 1010 80 45 4 297
2021335S09102 2022 94 SI WA TERATAI 2021-12-03 12:00:00 NR -8.80000 98.1000 PROVISIONAL 710 709 O_____________ tcvightals SI022021 -8.80000 98.1000 25 1006 -1 1010 80 45 4 310
2021335S09102 2022 94 SI WA TERATAI 2021-12-03 15:00:00 NR -8.69054 97.9869 PROVISIONAL 709 701 P_____________ SI022021 -8.69054 97.9869 -1 3 327
2021335S09102 2022 94 SI WA TERATAI 2021-12-03 18:00:00 NR -8.57502 97.9520 PROVISIONAL 701 693 O_____________ tcvightals SI022021 -8.57502 97.9520 -1 2 0
2021335S09102 2022 94 SI WA TERATAI 2021-12-03 21:00:00 NR -8.45574 97.9755 PROVISIONAL 693 669 P_____________ SI022021 -8.45574 97.9755 -1 3 26
2021335S09102 2022 94 SI WA TERATAI 2021-12-04 00:00:00 NR -8.33437 98.0738 PROVISIONAL 669 653 O_____________ tcvightals SI022021 -8.33437 98.0738 -1 3 45
2021335S09102 2022 94 SI WA TERATAI 2021-12-04 03:00:00 NR -8.21332 98.2181 PROVISIONAL 653 630 P_____________ SI022021 -8.21332 98.2181 -1 4 56
2021335S09102 2022 94 SI WA TERATAI 2021-12-04 06:00:00 NR -8.09531 98.4252 PROVISIONAL 630 599 O_____________ tcvightals SI022021 -8.09531 98.4251 -1 5 63
2021335S09102 2022 94 SI WA TERATAI 2021-12-04 09:00:00 NR -7.98100 98.6701 PROVISIONAL 599 576 P_____________ SI022021 -7.98100 98.6701 -1 6 68
2021335S09102 2022 94 SI WA TERATAI 2021-12-04 12:00:00 NR -7.87486 98.9658 PROVISIONAL 569 539 O_____________ tcvightals SI022021 -7.87486 98.9658 -1 7 72
2021335S09102 2022 94 SI WA TERATAI 2021-12-04 15:00:00 NR -7.77580 99.2914 PROVISIONAL 539 511 P_____________ SI022021 -7.77580 99.2914 -1 7 75
2021335S09102 2022 94 SI WA TERATAI 2021-12-04 18:00:00 NR -7.69004 99.6558 PROVISIONAL 503 472 O_____________ tcvightals SI022021 -7.69004 99.6558 -1 8 78
2021335S09102 2022 94 SI WA TERATAI 2021-12-04 21:00:00 NR -7.61477 100.042 PROVISIONAL 472 444 P_____________ SI022021 -7.61478 100.042 -1 8 81
2021335S09102 2022 94 SI WA TERATAI 2021-12-05 00:00:00 NR -7.55801 100.455 PROVISIONAL 437 402 O_____________ tcvightals SI022021 -7.55801 100.455 -1 8 83
2021335S09102 2022 94 SI WA TERATAI 2021-12-05 03:00:00 NR -7.51519 100.882 PROVISIONAL 402 374 P_____________ SI022021 -7.51519 100.882 -1 9 86
2021335S09102 2022 94 SI WA TERATAI 2021-12-05 06:00:00 NR -7.49613 101.325 PROVISIONAL 374 350 O_____________ tcvightals SI022021 -7.49613 101.324 -1 9 89
2021335S09102 2022 94 SI WA TERATAI 2021-12-05 09:00:00 NR -7.49452 101.773 PROVISIONAL 345 314 P_____________ SI022021 -7.49452 101.773 -1 9 92
2021335S09102 2022 94 SI WA TERATAI 2021-12-05 12:00:00 NR -7.52198 102.224 PROVISIONAL 314 291 O_____________ tcvightals SI022021 -7.52198 102.224 -1 9 95
2021335S09102 2022 94 SI WA TERATAI 2021-12-05 15:00:00 NR -7.57045 102.673 PROVISIONAL 283 248 P_____________ SI022021 -7.57045 102.673 -1 9 98
2021335S09102 2022 94 SI WA TERATAI 2021-12-05 18:00:00 NR -7.65337 103.113 PROVISIONAL 252 213 O_____________ tcvightals SI022021 -7.65337 103.113 -1 9 102
2021335S09102 2022 94 SI WA TERATAI 2021-12-05 21:00:00 NR -7.76091 103.544 PROVISIONAL 218 189 P_____________ SI022021 -7.76091 103.544 -1 9 107
2021335S09102 2022 94 SI WA TERATAI 2021-12-06 00:00:00 NR -7.90835 103.955 PROVISIONAL 180 173 O_____________ tcvightals SI022021 -7.90835 103.955 -1 9 113
2021335S09102 2022 94 SI WA TERATAI 2021-12-06 03:00:00 NR -8.09575 104.339 PROVISIONAL 176 170 P_____________ SI022021 -8.09575 104.339 -1 8 118
2021335S09102 2022 94 SI WA TERATAI 2021-12-06 06:00:00 NR -8.30525 104.709 PROVISIONAL 176 O_____________ tcvightals SI022021 -8.30525 104.709 -1 8 120

IBTrACS Databaseについて

本データベースは、米国NOAAが公開する1842年以降の世界の熱帯低気圧のベストトラックデータアーカイブInternational Best Track Archive for Climate Stewardship (IBTrACS)を、ウェブで閲覧しやすい形式に変換したものです。

最終更新日:2022-01-17